Terminal Aerodrome Forecast
Issued by NWS Cleveland, OH

Home | Current Version | Previous Version | Graphics & Text | Print | Product List | Glossary On
Versions: 1 2 3 4 5 6 7 8 9 10 11 12 13
000
FTUS41 KCLE 220521
TAFMFD
TAF
KMFD 220521Z 2206/2306 VRB04KT P6SM SKC
     FM221300 30008KT P6SM BKN100
     FM221900 35012G20KT P6SM SCT025 BKN035
     FM222300 35005KT P6SM FEW035=

USA.gov is the U.S. government's official web portal to all federal, state and local government web resources and services.